Time;durP1;ratioP1;P1;durP2;ratioP2;P2;SDS_P1;SDS_P2;PMS_P1;PMS_P2;Temp;Humidity;BMP_temperature;BMP_pressure;BME280_temperature;BME280_humidity;BME280_pressure;Samples;Min_cycle;Max_cycle;Signal;HPM_P1;HPM_P2
2023/10/10 00:01:38;;;;;;;16.00;5.70;;;15.70;99.90;;;;;;5011709;28;20453;-73
2023/10/10 00:04:05;;;;;;;18.17;6.63;;;15.90;99.90;;;;;;5009191;28;20464;-73
2023/10/10 00:06:34;;;;;;;12.37;6.10;;;15.70;99.90;;;;;;5007470;28;20430;-73
2023/10/10 00:08:59;;;;;;;15.03;7.20;;;15.60;99.90;;;;;;5007305;28;20980;-74
2023/10/10 00:11:26;;;;;;;17.33;8.37;;;15.60;99.90;;;;;;5009609;28;20537;-73
2023/10/10 00:14:05;;;;;;;18.23;5.73;;;15.60;99.90;;;;;;5009344;28;20179;-73
2023/10/10 00:16:37;;;;;;;10.03;5.10;;;15.60;99.90;;;;;;5005939;28;20442;-73
2023/10/10 00:21:52;;;;;;;11.70;5.20;;;15.60;99.90;;;;;;5013740;28;20456;-73
2023/10/10 00:24:20;;;;;;;19.60;6.83;;;15.60;99.90;;;;;;5014687;28;20413;-73
2023/10/10 00:26:49;;;;;;;13.23;5.90;;;15.60;99.90;;;;;;5012606;28;20178;-73
2023/10/10 00:29:18;;;;;;;8.33;5.37;;;15.60;99.90;;;;;;5014304;28;20521;-74
2023/10/10 00:31:47;;;;;;;16.93;5.30;;;15.60;99.90;;;;;;5007877;28;20457;-74
2023/10/10 00:34:13;;;;;;;12.87;5.70;;;15.50;99.90;;;;;;5011276;28;20511;-74
2023/10/10 00:36:41;;;;;;;13.73;5.33;;;15.50;99.90;;;;;;5009255;28;20931;-74
2023/10/10 00:39:12;;;;;;;10.33;5.20;;;15.50;99.90;;;;;;5007957;28;20547;-74
2023/10/10 00:41:51;;;;;;;15.90;6.13;;;15.40;99.90;;;;;;5012815;28;20541;-74
2023/10/10 00:44:17;;;;;;;16.00;6.80;;;15.40;99.90;;;;;;5010629;28;20480;-73
2023/10/10 00:46:47;;;;;;;11.17;5.40;;;15.40;99.90;;;;;;5008172;28;20508;-73
2023/10/10 00:49:13;;;;;;;11.13;5.70;;;15.40;99.90;;;;;;5003955;28;20956;-74
2023/10/10 00:51:40;;;;;;;21.60;8.10;;;15.30;99.90;;;;;;5007364;28;20496;-74
2023/10/10 00:54:16;;;;;;;16.33;6.23;;;15.30;99.90;;;;;;5007153;28;20442;-74
2023/10/10 00:56:44;;;;;;;12.10;6.10;;;15.30;99.90;;;;;;4999971;28;20467;-74
2023/10/10 00:59:11;;;;;;;11.40;5.80;;;15.30;99.90;;;;;;5010811;28;20907;-74
2023/10/10 01:01:40;;;;;;;17.03;6.13;;;15.30;99.90;;;;;;5011081;28;20457;-74
2023/10/10 01:04:07;;;;;;;11.77;5.93;;;15.30;99.90;;;;;;5012231;28;20430;-74
2023/10/10 01:06:39;;;;;;;10.93;5.90;;;15.30;99.90;;;;;;5013039;28;20979;-74
2023/10/10 01:09:20;;;;;;;12.40;6.30;;;15.30;99.90;;;;;;5017878;28;20942;-74
2023/10/10 01:11:49;;;;;;;13.10;6.17;;;15.20;99.90;;;;;;5009088;28;22072;-74
2023/10/10 01:14:18;;;;;;;13.73;6.20;;;15.20;99.90;;;;;;5011072;28;20532;-74
2023/10/10 01:16:47;;;;;;;14.40;6.80;;;15.10;99.90;;;;;;5007360;28;20513;-74
2023/10/10 01:19:17;;;;;;;20.73;7.93;;;15.20;99.90;;;;;;5013915;28;20458;-74
2023/10/10 01:21:50;;;;;;;12.10;6.60;;;15.10;99.90;;;;;;4994261;28;20446;-73
2023/10/10 01:24:17;;;;;;;12.53;5.87;;;15.10;99.90;;;;;;5014705;28;20472;-73
2023/10/10 01:26:47;;;;;;;16.57;6.17;;;15.00;99.90;;;;;;5004136;28;20845;-74
2023/10/10 01:29:25;;;;;;;15.03;5.80;;;15.00;99.90;;;;;;5003585;28;20439;-74
2023/10/10 01:31:58;;;;;;;10.10;5.90;;;14.90;99.90;;;;;;5008472;28;20449;-74
2023/10/10 01:34:30;;;;;;;10.63;5.60;;;14.90;99.90;;;;;;5008045;28;20474;-74
2023/10/10 01:37:14;;;;;;;14.90;5.97;;;14.90;99.90;;;;;;5008663;28;20524;-74
2023/10/10 01:40:16;;;;;;;16.13;6.70;;;14.90;99.90;;;;;;5012505;28;20433;-74
2023/10/10 01:42:59;;;;;;;9.13;4.87;;;14.90;99.90;;;;;;5001684;28;20437;-73
2023/10/10 01:45:27;;;;;;;12.00;6.23;;;14.90;99.90;;;;;;5011746;28;20464;-74
2023/10/10 01:48:08;;;;;;;16.40;7.70;;;14.90;99.90;;;;;;5009994;28;20469;-74
2023/10/10 01:50:34;;;;;;;12.63;6.03;;;14.90;99.90;;;;;;5012332;28;20564;-74
2023/10/10 01:53:00;;;;;;;25.57;6.60;;;14.80;99.90;;;;;;5011729;28;20968;-74
2023/10/10 01:55:26;;;;;;;18.63;9.10;;;14.80;99.90;;;;;;5006499;28;20528;-74
2023/10/10 01:57:57;;;;;;;12.33;8.20;;;14.90;99.90;;;;;;5010660;28;20967;-73
2023/10/10 02:00:26;;;;;;;13.77;6.40;;;14.80;99.90;;;;;;5009565;28;20190;-73
2023/10/10 02:02:56;;;;;;;7.40;5.10;;;14.80;99.90;;;;;;5005569;28;20956;-75
2023/10/10 02:05:41;;;;;;;14.23;7.00;;;14.80;99.90;;;;;;5005026;28;20534;-73
2023/10/10 02:08:11;;;;;;;10.17;5.63;;;14.80;99.90;;;;;;5015299;28;20994;-73
2023/10/10 02:10:43;;;;;;;16.73;6.80;;;14.80;99.90;;;;;;5014406;28;20461;-73
2023/10/10 02:13:11;;;;;;;13.40;7.00;;;14.80;99.90;;;;;;5015608;28;20429;-72
2023/10/10 02:15:39;;;;;;;12.43;5.90;;;14.70;99.90;;;;;;5005743;28;20467;-72
2023/10/10 02:18:12;;;;;;;16.43;8.30;;;14.70;99.90;;;;;;5007993;28;20809;-72
2023/10/10 02:23:31;;;;;;;12.30;6.07;;;14.60;99.90;;;;;;5006658;28;20524;-73
2023/10/10 02:26:03;;;;;;;12.17;5.93;;;14.60;99.90;;;;;;5004391;28;20438;-72
2023/10/10 02:28:46;;;;;;;8.40;5.23;;;14.60;99.90;;;;;;5014717;28;20931;-72
2023/10/10 02:31:16;;;;;;;17.10;6.07;;;14.60;99.90;;;;;;5014313;28;20460;-72
2023/10/10 02:34:03;;;;;;;14.40;5.50;;;14.60;99.90;;;;;;5012313;28;20856;-72
2023/10/10 02:36:34;;;;;;;15.30;5.90;;;14.60;99.90;;;;;;5008718;28;20449;-72
2023/10/10 02:39:19;;;;;;;13.20;5.30;;;14.60;99.90;;;;;;5004165;28;20830;-72
2023/10/10 02:41:48;;;;;;;11.47;5.80;;;14.50;99.90;;;;;;5005486;28;20854;-72
2023/10/10 02:44:26;;;;;;;11.63;6.20;;;14.50;99.90;;;;;;5008006;28;20950;-72
2023/10/10 02:46:54;;;;;;;14.30;6.73;;;14.50;99.90;;;;;;5007861;28;20467;-72
2023/10/10 02:49:29;;;;;;;16.47;6.67;;;14.40;99.90;;;;;;5007549;28;20445;-72
2023/10/10 02:51:55;;;;;;;11.80;5.83;;;14.40;99.90;;;;;;5006708;28;20469;-72
2023/10/10 02:56:48;;;;;;;10.07;5.83;;;14.40;99.90;;;;;;5009929;28;20465;-73
2023/10/10 02:59:21;;;;;;;11.87;5.73;;;14.50;99.90;;;;;;4992734;28;20498;-73
2023/10/10 03:01:59;;;;;;;15.33;6.90;;;14.40;99.90;;;;;;4996673;28;20819;-73
2023/10/10 03:04:52;;;;;;;14.53;5.40;;;14.40;99.90;;;;;;5012146;28;20840;-72
2023/10/10 03:07:10;;;;;;;15.73;7.93;;;14.40;99.90;;;;;;5010939;28;20469;-73
2023/10/10 03:10:06;;;;;;;17.93;5.93;;;14.40;99.90;;;;;;5012298;28;20458;-72
2023/10/10 03:12:27;;;;;;;12.10;6.20;;;14.30;99.90;;;;;;5011865;28;20225;-72
2023/10/10 03:14:54;;;;;;;23.00;6.67;;;14.30;99.90;;;;;;5010099;28;20476;-73
2023/10/10 03:17:43;;;;;;;11.50;5.60;;;14.20;99.90;;;;;;5012060;28;20488;-72
2023/10/10 03:25:45;;;;;;;13.47;6.10;;;14.10;99.90;;;;;;5013168;28;20421;-73
2023/10/10 03:29:20;;;;;;;13.57;6.90;;;14.00;99.90;;;;;;5016505;28;20432;-73
2023/10/10 03:31:10;;;;;;;13.60;6.20;;;14.00;99.90;;;;;;5002677;28;20536;-72
2023/10/10 03:41:25;;;;;;;15.40;6.60;;;13.70;99.90;;;;;;5015901;28;20934;-72
2023/10/10 05:25:24;;;;;;;11.20;6.47;;;13.10;99.90;;;;;;5033927;28;20415;-73
2023/10/10 05:27:51;;;;;;;12.53;6.63;;;12.90;99.90;;;;;;5019173;28;20434;-73
2023/10/10 05:30:39;;;;;;;13.03;7.50;;;12.80;99.90;;;;;;5007576;28;20207;-73
2023/10/10 05:33:05;;;;;;;30.60;11.93;;;12.60;99.90;;;;;;4998239;28;20441;-73
2023/10/10 05:35:55;;;;;;;14.50;7.23;;;12.50;99.90;;;;;;5012856;28;20441;-72
2023/10/10 05:38:20;;;;;;;18.83;9.80;;;12.50;99.90;;;;;;5014355;28;20832;-72
2023/10/10 05:40:48;;;;;;;16.10;10.63;;;12.40;99.90;;;;;;5031483;28;20433;-75
2023/10/10 05:43:19;;;;;;;16.60;7.23;;;12.60;99.90;;;;;;5012214;28;20516;-72
2023/10/10 05:45:45;;;;;;;12.53;6.50;;;12.40;99.90;;;;;;5006468;28;20890;-73
2023/10/10 05:48:11;;;;;;;16.80;7.13;;;12.40;99.90;;;;;;5009840;28;20434;-73
2023/10/10 05:50:37;;;;;;;13.97;7.33;;;12.40;99.90;;;;;;5014677;28;20453;-73
2023/10/10 05:53:05;;;;;;;15.33;6.97;;;12.40;99.90;;;;;;5018366;28;20433;-75
2023/10/10 05:55:33;;;;;;;19.73;7.40;;;12.50;99.90;;;;;;5013479;28;20495;-72
2023/10/10 05:58:02;;;;;;;12.97;6.83;;;12.60;99.90;;;;;;5007843;28;20485;-72
2023/10/10 06:00:28;;;;;;;12.53;7.50;;;12.70;99.90;;;;;;5009780;28;20453;-75
2023/10/10 06:02:54;;;;;;;11.77;6.20;;;12.80;99.90;;;;;;5007845;28;20434;-75
2023/10/10 06:05:20;;;;;;;13.20;6.70;;;12.90;99.90;;;;;;5010364;28;20434;-73
2023/10/10 06:07:48;;;;;;;15.83;8.00;;;12.90;99.90;;;;;;5005793;28;20472;-75
2023/10/10 06:10:17;;;;;;;13.17;7.70;;;12.90;99.90;;;;;;5004303;28;20564;-74
2023/10/10 06:12:43;;;;;;;15.43;8.80;;;13.00;99.90;;;;;;5004597;28;20520;-74
2023/10/10 06:15:08;;;;;;;16.80;8.50;;;13.00;99.90;;;;;;5003479;28;21012;-75
2023/10/10 06:17:34;;;;;;;16.27;6.73;;;13.00;99.90;;;;;;5008154;28;20466;-75
2023/10/10 06:20:10;;;;;;;17.50;7.40;;;13.20;99.90;;;;;;5011902;28;20227;-75
2023/10/10 06:22:36;;;;;;;14.60;7.50;;;13.30;99.90;;;;;;5005070;28;20702;-72
2023/10/10 06:25:04;;;;;;;15.00;7.00;;;13.50;99.90;;;;;;5018261;28;20500;-75
2023/10/10 06:27:33;;;;;;;14.50;8.80;;;13.70;99.90;;;;;;5008684;28;20465;-72
2023/10/10 06:29:58;;;;;;;15.83;8.93;;;14.00;99.90;;;;;;5011996;28;20452;-72
2023/10/10 06:32:25;;;;;;;19.87;7.40;;;14.10;99.90;;;;;;5012592;28;20445;-72
2023/10/10 06:35:12;;;;;;;18.13;7.33;;;14.30;99.90;;;;;;5007736;28;20175;-72
2023/10/10 06:37:38;;;;;;;17.20;9.17;;;14.50;99.90;;;;;;5009333;28;20464;-72
2023/10/10 06:40:08;;;;;;;18.33;7.30;;;14.80;99.90;;;;;;5009792;28;20443;-72
2023/10/10 06:42:34;;;;;;;13.20;6.23;;;14.90;99.90;;;;;;5007126;28;20707;-72
2023/10/10 06:45:07;;;;;;;10.83;6.63;;;15.10;99.90;;;;;;5010651;28;20465;-72
2023/10/10 06:47:33;;;;;;;19.50;11.53;;;15.30;99.90;;;;;;5006224;28;20943;-72
2023/10/10 06:50:00;;;;;;;18.40;10.97;;;15.50;99.90;;;;;;5006887;28;20426;-74
2023/10/10 06:52:30;;;;;;;10.43;7.20;;;15.70;99.90;;;;;;5012429;28;20793;-72
2023/10/10 06:54:56;;;;;;;10.77;8.37;;;15.80;99.90;;;;;;5009149;28;20437;-72
2023/10/10 06:57:51;;;;;;;11.63;7.20;;;16.00;99.90;;;;;;5007257;28;20958;-72
2023/10/10 07:00:20;;;;;;;14.23;7.53;;;16.10;99.90;;;;;;5005420;28;20441;-71
2023/10/10 07:02:49;;;;;;;10.07;7.00;;;16.20;99.90;;;;;;5011791;28;20902;-72
2023/10/10 07:05:19;;;;;;;18.20;13.27;;;16.40;99.90;;;;;;5012402;28;20418;-71
2023/10/10 07:07:52;;;;;;;22.53;10.40;;;16.50;99.90;;;;;;5008717;28;20460;-74
2023/10/10 07:10:25;;;;;;;18.80;9.10;;;16.70;99.90;;;;;;5005815;28;20433;-72
2023/10/10 07:12:54;;;;;;;12.10;8.03;;;16.90;99.90;;;;;;5009586;28;20958;-72
2023/10/10 07:15:33;;;;;;;15.57;9.20;;;17.10;99.90;;;;;;5005327;28;20512;-72
2023/10/10 07:18:08;;;;;;;15.43;9.90;;;17.30;99.90;;;;;;5007510;28;20437;-72
2023/10/10 07:23:21;;;;;;;20.70;9.37;;;17.90;99.90;;;;;;5004794;28;20436;-72
2023/10/10 07:25:58;;;;;;;22.50;9.57;;;18.20;99.90;;;;;;5010784;28;20430;-72
2023/10/10 07:28:26;;;;;;;15.60;8.10;;;18.30;99.90;;;;;;5011058;28;20186;-72
2023/10/10 07:30:52;;;;;;;20.03;9.43;;;18.50;99.90;;;;;;5002746;28;20830;-72
2023/10/10 07:33:22;;;;;;;18.50;8.80;;;18.50;99.90;;;;;;5002662;28;20437;-73
2023/10/10 07:35:53;;;;;;;16.80;8.53;;;18.80;99.90;;;;;;5003781;28;20811;-72
2023/10/10 07:38:24;;;;;;;14.07;7.73;;;19.20;99.90;;;;;;5009177;28;21028;-72
2023/10/10 07:40:52;;;;;;;13.43;7.23;;;19.60;99.90;;;;;;5012110;28;20516;-72
2023/10/10 07:43:17;;;;;;;16.87;8.93;;;19.80;99.90;;;;;;5001922;28;20434;-72
2023/10/10 07:45:43;;;;;;;29.17;10.07;;;19.90;99.90;;;;;;5006087;28;20556;-72
2023/10/10 07:50:36;;;;;;;16.30;10.13;;;19.90;99.90;;;;;;5007464;28;20578;-65
2023/10/10 07:53:04;;;;;;;15.40;8.60;;;19.80;99.90;;;;;;5011357;28;20453;-65
2023/10/10 07:56:16;;;;;;;23.97;7.57;;;19.70;99.90;;;;;;5009305;28;20492;-65
2023/10/10 07:58:16;;;;;;;16.23;9.23;;;19.90;99.90;;;;;;4998619;28;20914;-66
2023/10/10 08:00:44;;;;;;;13.60;8.63;;;19.70;99.90;;;;;;5008479;28;20548;-65
2023/10/10 08:03:19;;;;;;;15.73;9.17;;;19.40;99.90;;;;;;5010207;28;20182;-65
2023/10/10 08:05:48;;;;;;;17.33;8.20;;;19.40;99.90;;;;;;5006813;28;20433;-65
2023/10/10 08:08:15;;;;;;;16.23;7.40;;;19.50;99.90;;;;;;5011336;28;20425;-65
2023/10/10 08:10:44;;;;;;;14.00;9.10;;;19.40;99.90;;;;;;5008662;28;20472;-66
2023/10/10 08:13:14;;;;;;;15.17;7.40;;;19.60;99.90;;;;;;5004246;28;20440;-66
2023/10/10 08:18:40;;;;;;;15.43;7.30;;;20.40;99.90;;;;;;5009377;28;20465;-65
2023/10/10 08:21:09;;;;;;;16.30;8.23;;;21.10;99.90;;;;;;5007556;28;20469;-66
2023/10/10 08:23:36;;;;;;;18.90;7.70;;;21.70;99.90;;;;;;5014167;28;20773;-66
2023/10/10 08:26:01;;;;;;;11.33;7.13;;;21.80;99.90;;;;;;5004863;28;20453;-66
2023/10/10 08:28:27;;;;;;;17.10;7.43;;;22.20;99.90;;;;;;5014671;28;20421;-66
2023/10/10 08:30:53;;;;;;;15.67;8.23;;;22.00;99.90;;;;;;5011946;28;20198;-65
2023/10/10 08:33:19;;;;;;;15.93;7.43;;;22.10;99.90;;;;;;5014682;28;20230;-65
2023/10/10 08:35:46;;;;;;;18.07;9.10;;;22.90;99.90;;;;;;5006851;28;20221;-66
2023/10/10 08:38:14;;;;;;;10.30;6.97;;;23.70;98.30;;;;;;5011059;28;20990;-66
2023/10/10 08:40:43;;;;;;;16.33;8.00;;;24.00;96.60;;;;;;5004119;28;20529;-66
2023/10/10 08:43:09;;;;;;;17.10;8.40;;;24.60;94.30;;;;;;5012302;28;20433;-67
2023/10/10 08:45:40;;;;;;;13.43;8.20;;;25.20;92.30;;;;;;5013627;28;20843;-67
2023/10/10 08:48:12;;;;;;;12.40;7.30;;;25.50;90.70;;;;;;5013642;28;20689;-65
2023/10/10 08:50:40;;;;;;;18.40;7.60;;;26.00;88.50;;;;;;5005848;28;20862;-66
2023/10/10 08:53:10;;;;;;;13.07;7.33;;;26.50;84.80;;;;;;5010076;28;20521;-66
2023/10/10 08:55:40;;;;;;;14.70;7.73;;;26.60;82.50;;;;;;5006245;28;20438;-66
2023/10/10 08:58:10;;;;;;;12.40;7.70;;;27.50;78.90;;;;;;5005461;28;20507;-66
2023/10/10 09:00:37;;;;;;;22.87;7.97;;;28.60;72.30;;;;;;5014137;28;20449;-68
2023/10/10 09:03:03;;;;;;;13.57;7.60;;;28.90;68.50;;;;;;5014190;28;20449;-66
2023/10/10 09:05:29;;;;;;;18.33;7.87;;;28.60;67.00;;;;;;5012169;28;20472;-66
2023/10/10 09:08:05;;;;;;;13.97;8.40;;;28.30;66.40;;;;;;5013800;28;20536;-67
2023/10/10 09:10:39;;;;;;;14.47;7.50;;;27.90;67.00;;;;;;5009423;28;20696;-67
2023/10/10 09:13:07;;;;;;;22.33;7.70;;;27.20;68.60;;;;;;5010983;28;20446;-66
2023/10/10 09:15:34;;;;;;;16.20;8.20;;;27.40;68.90;;;;;;5011160;28;20492;-66
2023/10/10 09:18:14;;;;;;;14.20;7.43;;;27.40;68.40;;;;;;5013755;28;20859;-67
2023/10/10 09:20:40;;;;;;;12.73;7.80;;;27.40;68.20;;;;;;5003055;28;20453;-67
2023/10/10 09:23:25;;;;;;;16.67;8.33;;;27.00;67.70;;;;;;5004598;28;20495;-67
2023/10/10 09:28:58;;;;;;;18.80;7.40;;;25.60;71.20;;;;;;5009152;28;20434;-67
2023/10/10 09:31:30;;;;;;;10.50;6.60;;;25.80;73.10;;;;;;5010247;28;20464;-67
2023/10/10 09:33:57;;;;;;;12.90;7.17;;;26.00;73.10;;;;;;5013336;28;20435;-67
2023/10/10 09:36:27;;;;;;;23.90;7.50;;;26.30;73.80;;;;;;5004579;28;20499;-67
2023/10/10 09:38:54;;;;;;;15.00;7.33;;;27.70;70.60;;;;;;5002636;28;20466;-66
2023/10/10 09:44:30;;;;;;;14.47;8.80;;;30.90;61.30;;;;;;5012778;28;20915;-66
2023/10/10 09:49:52;;;;;;;17.50;8.13;;;31.30;56.70;;;;;;5012511;28;21014;-66
2023/10/10 09:55:21;;;;;;;14.50;7.50;;;31.40;55.40;;;;;;5011267;28;20432;-66
2023/10/10 10:00:45;;;;;;;14.07;7.70;;;30.90;53.30;;;;;;5010698;28;20442;-67
2023/10/10 10:09:09;;;;;;;15.17;6.97;;;29.90;53.80;;;;;;5008171;28;20889;-66
2023/10/10 10:12:04;;;;;;;11.70;7.10;;;30.70;52.70;;;;;;5006446;28;20477;-70
2023/10/10 10:14:47;;;;;;;11.63;6.60;;;30.90;50.60;;;;;;5012379;28;20456;-69
2023/10/10 10:17:24;;;;;;;12.70;7.40;;;31.00;49.60;;;;;;5012370;28;20435;-69
2023/10/10 10:19:50;;;;;;;13.47;7.53;;;31.50;48.30;;;;;;4993406;28;20434;-69
2023/10/10 10:22:17;;;;;;;12.13;7.80;;;32.10;47.20;;;;;;4993281;28;20485;-69
2023/10/10 10:24:45;;;;;;;12.70;7.63;;;31.50;46.50;;;;;;4992856;28;20172;-69
2023/10/10 10:27:25;;;;;;;10.67;7.03;;;31.50;47.70;;;;;;5007666;28;20437;-69
2023/10/10 10:29:55;;;;;;;10.07;7.20;;;32.10;46.50;;;;;;5006558;28;20425;-69
2023/10/10 10:32:24;;;;;;;13.80;7.80;;;32.30;45.80;;;;;;5012716;28;20975;-68
2023/10/10 10:34:56;;;;;;;11.00;6.83;;;32.60;45.10;;;;;;5011581;28;20413;-69
2023/10/10 10:37:24;;;;;;;9.33;6.80;;;31.70;45.00;;;;;;5012582;28;20791;-69
2023/10/10 10:42:46;;;;;;;12.37;7.07;;;32.40;45.30;;;;;;5004844;28;20413;-69
2023/10/10 10:45:35;;;;;;;9.47;6.90;;;33.00;44.30;;;;;;5012676;28;20421;-69
2023/10/10 10:48:06;;;;;;;15.80;6.93;;;33.10;43.40;;;;;;5012776;28;20418;-69
2023/10/10 10:50:42;;;;;;;15.07;6.80;;;33.50;43.70;;;;;;5012577;28;20448;-69
2023/10/10 10:53:30;;;;;;;13.73;7.10;;;33.50;43.80;;;;;;5011928;28;20456;-69
2023/10/10 11:01:23;;;;;;;12.80;6.40;;;34.70;42.00;;;;;;5012500;28;20476;-69
2023/10/10 11:03:53;;;;;;;12.60;6.87;;;35.30;41.60;;;;;;5012113;28;20480;-69
2023/10/10 11:06:21;;;;;;;16.40;6.70;;;35.80;41.10;;;;;;5012137;28;20457;-69
2023/10/10 11:14:00;;;;;;;10.77;6.50;;;37.40;38.10;;;;;;5006089;28;20429;-69
2023/10/10 11:16:39;;;;;;;13.60;7.03;;;37.40;37.10;;;;;;5011193;28;20461;-69
2023/10/10 11:21:50;;;;;;;14.47;6.63;;;37.90;35.60;;;;;;5012331;28;20449;-69
2023/10/10 11:24:29;;;;;;;15.00;6.80;;;38.20;34.90;;;;;;5011888;28;20429;-69
2023/10/10 11:29:29;;;;;;;13.80;6.27;;;37.10;35.30;;;;;;5008671;28;20460;-69
2023/10/10 11:32:46;;;;;;;13.73;6.43;;;36.30;35.70;;;;;;5011844;28;20535;-69
2023/10/10 11:34:49;;;;;;;11.60;6.77;;;35.70;35.40;;;;;;5004395;28;20182;-69
2023/10/10 11:37:20;;;;;;;13.73;6.20;;;35.90;36.00;;;;;;5011925;28;20422;-69
2023/10/10 11:39:47;;;;;;;13.67;6.53;;;35.80;35.30;;;;;;5011917;28;20520;-68
2023/10/10 11:42:33;;;;;;;12.13;6.20;;;34.90;35.90;;;;;;5011752;28;20426;-69
2023/10/10 11:45:05;;;;;;;13.13;7.37;;;33.60;36.90;;;;;;5010624;28;20429;-68
2023/10/10 11:47:42;;;;;;;15.93;7.60;;;33.70;37.80;;;;;;5012028;28;20491;-69
2023/10/10 11:50:11;;;;;;;8.80;6.40;;;33.40;37.20;;;;;;5015697;28;20833;-69
2023/10/10 11:52:51;;;;;;;13.90;7.33;;;34.80;37.10;;;;;;5011370;28;20931;-69
2023/10/10 11:55:20;;;;;;;10.07;7.70;;;35.50;35.90;;;;;;5015527;28;21153;-69
2023/10/10 11:57:49;;;;;;;12.73;7.50;;;35.40;35.90;;;;;;5015582;28;20451;-69
2023/10/10 12:00:22;;;;;;;11.60;7.67;;;35.80;35.10;;;;;;5015401;28;20916;-68
2023/10/10 12:02:51;;;;;;;9.57;6.37;;;35.80;34.80;;;;;;5015523;28;20919;-69
2023/10/10 12:07:53;;;;;;;11.20;7.00;;;35.40;34.90;;;;;;5014492;28;20796;-68
2023/10/10 12:10:21;;;;;;;15.17;6.80;;;35.70;34.60;;;;;;5015021;28;20540;-68
2023/10/10 12:12:49;;;;;;;11.90;6.93;;;35.70;34.80;;;;;;5015085;28;20840;-69
2023/10/10 12:15:19;;;;;;;11.60;6.30;;;35.40;34.30;;;;;;5013356;28;20437;-68
2023/10/10 12:17:45;;;;;;;13.90;7.40;;;34.70;35.00;;;;;;5014971;28;20457;-69
2023/10/10 12:20:10;;;;;;;15.53;7.60;;;33.90;35.70;;;;;;5012778;28;21025;-68
2023/10/10 12:22:38;;;;;;;14.60;6.33;;;33.50;36.20;;;;;;5010030;28;20562;-64
2023/10/10 12:25:04;;;;;;;9.83;7.23;;;33.60;37.00;;;;;;5006364;28;20175;-66
2023/10/10 12:27:30;;;;;;;13.07;6.73;;;33.50;36.50;;;;;;5014668;28;20471;-67
2023/10/10 12:29:58;;;;;;;15.10;7.10;;;33.40;36.90;;;;;;5009662;28;20438;-66
2023/10/10 12:32:26;;;;;;;16.77;6.33;;;33.30;37.10;;;;;;5008823;28;20195;-65
2023/10/10 12:34:52;;;;;;;11.67;5.80;;;32.90;37.40;;;;;;5013495;28;20467;-66
2023/10/10 12:37:17;;;;;;;16.13;7.10;;;32.70;37.70;;;;;;5009141;28;20525;-64
2023/10/10 12:39:44;;;;;;;15.30;7.83;;;32.70;38.00;;;;;;5009276;28;20199;-66
2023/10/10 12:42:09;;;;;;;12.00;6.20;;;32.70;38.40;;;;;;5011768;28;20661;-65
2023/10/10 12:44:35;;;;;;;10.90;6.80;;;32.60;37.90;;;;;;5012285;28;20430;-65
2023/10/10 12:47:06;;;;;;;13.70;7.53;;;32.80;37.90;;;;;;5009418;28;20545;-66
2023/10/10 12:49:44;;;;;;;16.53;6.30;;;32.80;38.10;;;;;;5014611;28;20174;-65
2023/10/10 12:52:13;;;;;;;15.43;7.03;;;32.80;37.70;;;;;;5012237;28;20864;-66
2023/10/10 12:54:38;;;;;;;11.50;6.70;;;32.50;38.40;;;;;;5005109;28;20433;-66
2023/10/10 12:57:13;;;;;;;14.10;7.30;;;32.50;38.50;;;;;;5010842;28;21086;-66
2023/10/10 12:59:39;;;;;;;11.20;6.40;;;32.60;37.70;;;;;;5007015;28;20369;-65
2023/10/10 13:02:04;;;;;;;15.27;6.37;;;32.80;37.40;;;;;;5004967;28;20544;-66
2023/10/10 13:04:36;;;;;;;14.63;6.90;;;33.00;37.40;;;;;;5007515;28;20178;-64
2023/10/10 13:07:05;;;;;;;12.10;7.00;;;33.60;36.40;;;;;;5013963;28;20430;-65
2023/10/10 13:09:31;;;;;;;9.93;6.00;;;34.30;36.20;;;;;;5011842;28;20434;-66
2023/10/10 13:11:57;;;;;;;14.70;7.13;;;34.60;35.80;;;;;;5005966;28;20531;-66
2023/10/10 13:14:25;;;;;;;12.33;6.87;;;34.80;35.30;;;;;;5012119;28;20438;-65
2023/10/10 13:19:23;;;;;;;11.70;6.13;;;34.90;34.40;;;;;;5009447;28;20497;-64
2023/10/10 13:21:52;;;;;;;10.47;6.40;;;34.50;35.00;;;;;;5007475;28;20446;-66
2023/10/10 13:24:18;;;;;;;14.43;6.50;;;34.50;34.60;;;;;;5009706;28;20744;-65
2023/10/10 13:26:49;;;;;;;14.73;6.60;;;34.00;34.30;;;;;;5013940;28;20778;-66
2023/10/10 13:29:16;;;;;;;15.60;6.03;;;33.30;35.00;;;;;;5020396;28;20444;-66
2023/10/10 13:31:44;;;;;;;20.00;7.17;;;31.50;36.50;;;;;;5008289;28;20552;-66
2023/10/10 13:34:10;;;;;;;11.07;7.20;;;31.20;37.60;;;;;;5009012;28;20443;-64
2023/10/10 13:36:36;;;;;;;17.07;7.30;;;31.40;37.80;;;;;;5013297;28;20532;-66
2023/10/10 13:39:06;;;;;;;13.97;6.93;;;31.10;38.10;;;;;;5013736;28;20540;-66
2023/10/10 13:41:35;;;;;;;11.23;6.07;;;30.90;38.50;;;;;;5012556;28;20231;-63
2023/10/10 13:44:02;;;;;;;16.03;8.07;;;30.40;38.80;;;;;;5005925;28;20465;-64
2023/10/10 13:46:37;;;;;;;14.13;6.60;;;30.00;39.60;;;;;;5003163;28;20430;-66
2023/10/10 13:49:04;;;;;;;17.17;8.00;;;29.90;40.50;;;;;;5012529;28;20528;-66
2023/10/10 13:51:37;;;;;;;11.93;7.40;;;29.50;39.20;;;;;;5013240;28;20789;-67
2023/10/10 13:54:03;;;;;;;20.43;7.90;;;29.10;39.80;;;;;;5010734;28;20520;-65
2023/10/10 13:56:30;;;;;;;16.63;7.93;;;28.80;40.30;;;;;;5008998;28;20876;-66
2023/10/10 13:58:57;;;;;;;11.70;7.67;;;28.70;40.70;;;;;;5003323;28;20726;-64
2023/10/10 14:01:29;;;;;;;16.60;8.00;;;28.40;41.10;;;;;;5004879;28;20457;-70
2023/10/10 14:04:00;;;;;;;14.80;8.17;;;28.20;41.10;;;;;;5011288;28;20434;-69
2023/10/10 14:06:27;;;;;;;17.37;8.07;;;27.90;41.40;;;;;;5004672;28;20444;-69
2023/10/10 14:08:53;;;;;;;13.77;8.43;;;27.70;41.50;;;;;;5004015;28;20437;-69
2023/10/10 14:11:22;;;;;;;9.57;6.50;;;27.60;42.00;;;;;;5012718;28;20465;-69
2023/10/10 14:13:49;;;;;;;16.47;8.17;;;27.50;42.50;;;;;;5008345;28;20538;-69
2023/10/10 14:16:15;;;;;;;16.03;8.73;;;27.40;42.90;;;;;;5009775;28;20500;-69
2023/10/10 14:18:47;;;;;;;13.40;8.03;;;27.40;43.10;;;;;;5011675;28;20875;-69
2023/10/10 14:21:16;;;;;;;14.30;8.03;;;27.20;42.50;;;;;;5012005;28;20260;-72
2023/10/10 14:23:44;;;;;;;16.53;7.10;;;26.70;42.70;;;;;;5002702;28;20450;-69
2023/10/10 14:26:16;;;;;;;18.70;8.00;;;26.50;43.30;;;;;;5003624;28;20445;-69
2023/10/10 14:28:53;;;;;;;14.57;7.40;;;26.40;43.50;;;;;;5002608;28;20990;-69
2023/10/10 14:31:21;;;;;;;21.67;8.00;;;26.30;43.80;;;;;;5001759;28;20445;-69
2023/10/10 14:33:47;;;;;;;14.23;9.03;;;26.30;44.00;;;;;;5007908;28;20433;-70
2023/10/10 14:36:12;;;;;;;20.70;8.40;;;26.30;44.40;;;;;;5006320;28;20465;-70
2023/10/10 14:38:45;;;;;;;18.07;6.77;;;26.20;44.70;;;;;;5010090;28;20485;-70
2023/10/10 14:41:17;;;;;;;17.10;7.20;;;26.10;44.60;;;;;;5003547;28;20761;-70
2023/10/10 14:43:47;;;;;;;15.33;8.20;;;25.90;44.50;;;;;;5004179;28;20828;-70
2023/10/10 14:46:43;;;;;;;11.30;7.30;;;25.90;44.70;;;;;;4999052;28;20431;-70
2023/10/10 14:49:18;;;;;;;20.07;7.40;;;25.70;44.40;;;;;;4994425;28;20453;-70
2023/10/10 14:51:52;;;;;;;18.80;6.50;;;25.50;44.50;;;;;;5005848;28;21092;-70
2023/10/10 14:54:19;;;;;;;12.60;7.67;;;25.50;45.10;;;;;;5005871;28;20433;-70
2023/10/10 14:56:51;;;;;;;14.37;7.60;;;25.40;45.20;;;;;;5007583;28;20460;-70
2023/10/10 14:59:18;;;;;;;21.67;9.80;;;25.40;45.30;;;;;;5009731;28;20811;-71
2023/10/10 15:01:47;;;;;;;17.57;7.57;;;25.30;45.50;;;;;;5005139;28;20894;-70
2023/10/10 15:04:17;;;;;;;19.13;8.77;;;25.20;45.90;;;;;;5006377;28;20866;-70
2023/10/10 15:06:43;;;;;;;13.93;8.10;;;25.10;46.00;;;;;;5000926;28;21022;-70
2023/10/10 15:09:14;;;;;;;17.37;7.93;;;25.10;45.60;;;;;;5009733;28;20442;-70
2023/10/10 15:11:43;;;;;;;14.40;8.67;;;25.00;45.90;;;;;;5005979;28;20507;-70
2023/10/10 15:14:09;;;;;;;12.97;7.90;;;24.90;46.30;;;;;;5005107;28;20442;-70
2023/10/10 15:16:36;;;;;;;14.73;7.80;;;24.70;46.80;;;;;;5005466;28;20441;-70
2023/10/10 15:19:07;;;;;;;18.93;8.50;;;24.50;47.00;;;;;;5007704;28;20493;-70
2023/10/10 15:21:36;;;;;;;14.63;8.40;;;24.50;47.20;;;;;;5006298;28;20491;-70
2023/10/10 15:24:04;;;;;;;15.00;7.30;;;24.30;47.70;;;;;;5005654;28;20442;-70
2023/10/10 15:26:30;;;;;;;17.10;7.80;;;24.20;48.00;;;;;;5010395;28;20867;-71
2023/10/10 15:28:56;;;;;;;15.53;7.63;;;24.20;48.70;;;;;;5009451;28;20516;-70
2023/10/10 15:31:27;;;;;;;15.33;7.20;;;24.10;49.70;;;;;;5010884;28;20453;-70
2023/10/10 15:33:52;;;;;;;14.83;7.27;;;24.00;50.80;;;;;;5006722;28;20434;-68
2023/10/10 15:36:18;;;;;;;14.93;7.67;;;23.80;52.00;;;;;;5007642;28;20505;-69
2023/10/10 15:38:44;;;;;;;18.00;8.53;;;23.60;52.90;;;;;;5011244;28;20221;-69
2023/10/10 15:41:21;;;;;;;13.73;6.87;;;23.50;53.20;;;;;;5011614;28;20193;-69
2023/10/10 15:43:48;;;;;;;13.70;7.83;;;23.40;53.90;;;;;;5011595;28;20425;-69
2023/10/10 15:46:15;;;;;;;13.80;7.60;;;23.30;55.00;;;;;;5005831;28;20437;-68
2023/10/10 15:48:59;;;;;;;11.87;7.07;;;23.10;57.00;;;;;;5007088;28;20838;-69
2023/10/10 15:51:26;;;;;;;15.20;8.17;;;22.90;58.30;;;;;;5011198;28;20515;-70